sensor_id;sensor_type;location;lat;lon;timestamp;P1;durP1;ratioP1;P2;durP2;ratioP2
35530;SDS011;21637;53.352;-6.356;2023-04-03T00:02:14;3.25;;;1.50;;
35530;SDS011;21637;53.352;-6.356;2023-04-03T00:04:40;2.65;;;1.35;;
35530;SDS011;21637;53.352;-6.356;2023-04-03T00:07:06;4.15;;;1.92;;
35530;SDS011;21637;53.352;-6.356;2023-04-03T00:09:32;4.32;;;1.73;;
35530;SDS011;21637;53.352;-6.356;2023-04-03T00:11:57;3.88;;;1.42;;
35530;SDS011;21637;53.352;-6.356;2023-04-03T00:14:23;2.85;;;1.50;;
35530;SDS011;21637;53.352;-6.356;2023-04-03T00:16:49;3.22;;;1.30;;
35530;SDS011;21637;53.352;-6.356;2023-04-03T00:19:14;2.65;;;1.20;;
35530;SDS011;21637;53.352;-6.356;2023-04-03T00:21:40;4.63;;;1.65;;
35530;SDS011;21637;53.352;-6.356;2023-04-03T00:24:06;2.67;;;1.63;;
35530;SDS011;21637;53.352;-6.356;2023-04-03T00:26:32;3.17;;;1.42;;
35530;SDS011;21637;53.352;-6.356;2023-04-03T00:28:57;2.88;;;1.50;;
35530;SDS011;21637;53.352;-6.356;2023-04-03T00:31:23;4.95;;;1.55;;
35530;SDS011;21637;53.352;-6.356;2023-04-03T00:33:49;3.10;;;1.88;;
35530;SDS011;21637;53.352;-6.356;2023-04-03T00:36:14;3.85;;;1.52;;
35530;SDS011;21637;53.352;-6.356;2023-04-03T00:38:40;5.80;;;1.42;;
35530;SDS011;21637;53.352;-6.356;2023-04-03T00:41:06;3.42;;;1.67;;
35530;SDS011;21637;53.352;-6.356;2023-04-03T00:43:32;3.90;;;1.65;;
35530;SDS011;21637;53.352;-6.356;2023-04-03T00:45:58;2.65;;;1.50;;
35530;SDS011;21637;53.352;-6.356;2023-04-03T00:48:29;3.30;;;1.42;;
35530;SDS011;21637;53.352;-6.356;2023-04-03T00:50:57;5.25;;;1.85;;
35530;SDS011;21637;53.352;-6.356;2023-04-03T00:53:25;3.33;;;1.67;;
35530;SDS011;21637;53.352;-6.356;2023-04-03T00:56:02;4.97;;;2.22;;
35530;SDS011;21637;53.352;-6.356;2023-04-03T00:58:37;2.78;;;1.50;;
35530;SDS011;21637;53.352;-6.356;2023-04-03T01:01:18;4.38;;;2.00;;
35530;SDS011;21637;53.352;-6.356;2023-04-03T01:03:50;3.05;;;1.75;;
35530;SDS011;21637;53.352;-6.356;2023-04-03T01:06:16;5.13;;;1.73;;
35530;SDS011;21637;53.352;-6.356;2023-04-03T01:08:45;2.95;;;1.83;;
35530;SDS011;21637;53.352;-6.356;2023-04-03T01:11:13;5.57;;;2.13;;
35530;SDS011;21637;53.352;-6.356;2023-04-03T01:13:39;5.60;;;2.33;;
35530;SDS011;21637;53.352;-6.356;2023-04-03T01:16:05;6.57;;;2.42;;
35530;SDS011;21637;53.352;-6.356;2023-04-03T01:18:32;6.00;;;2.22;;
35530;SDS011;21637;53.352;-6.356;2023-04-03T01:21:14;4.40;;;2.05;;
35530;SDS011;21637;53.352;-6.356;2023-04-03T01:26:56;4.85;;;1.80;;
35530;SDS011;21637;53.352;-6.356;2023-04-03T01:29:22;4.13;;;1.60;;
35530;SDS011;21637;53.352;-6.356;2023-04-03T01:34:14;3.50;;;1.92;;
35530;SDS011;21637;53.352;-6.356;2023-04-03T01:36:40;6.53;;;1.90;;
35530;SDS011;21637;53.352;-6.356;2023-04-03T01:39:06;3.15;;;1.90;;
35530;SDS011;21637;53.352;-6.356;2023-04-03T01:41:32;4.10;;;1.90;;
35530;SDS011;21637;53.352;-6.356;2023-04-03T01:43:58;5.70;;;1.55;;
35530;SDS011;21637;53.352;-6.356;2023-04-03T01:46:23;2.90;;;1.80;;
35530;SDS011;21637;53.352;-6.356;2023-04-03T01:48:49;3.85;;;1.77;;
35530;SDS011;21637;53.352;-6.356;2023-04-03T01:51:15;2.58;;;1.70;;
35530;SDS011;21637;53.352;-6.356;2023-04-03T01:53:41;5.88;;;2.58;;
35530;SDS011;21637;53.352;-6.356;2023-04-03T01:56:07;3.67;;;2.38;;
35530;SDS011;21637;53.352;-6.356;2023-04-03T01:58:33;2.55;;;1.80;;
35530;SDS011;21637;53.352;-6.356;2023-04-03T02:00:59;2.97;;;1.92;;
35530;SDS011;21637;53.352;-6.356;2023-04-03T02:03:25;5.32;;;1.88;;
35530;SDS011;21637;53.352;-6.356;2023-04-03T02:05:51;3.92;;;1.90;;
35530;SDS011;21637;53.352;-6.356;2023-04-03T02:08:17;3.97;;;1.90;;
35530;SDS011;21637;53.352;-6.356;2023-04-03T02:10:48;4.35;;;2.22;;
35530;SDS011;21637;53.352;-6.356;2023-04-03T02:13:15;3.13;;;2.20;;
35530;SDS011;21637;53.352;-6.356;2023-04-03T02:15:42;5.05;;;2.30;;
35530;SDS011;21637;53.352;-6.356;2023-04-03T02:18:08;3.78;;;2.00;;
35530;SDS011;21637;53.352;-6.356;2023-04-03T02:20:34;3.13;;;2.03;;
35530;SDS011;21637;53.352;-6.356;2023-04-03T02:23:00;5.45;;;2.30;;
35530;SDS011;21637;53.352;-6.356;2023-04-03T02:25:26;7.10;;;2.35;;
35530;SDS011;21637;53.352;-6.356;2023-04-03T02:27:52;9.75;;;2.58;;
35530;SDS011;21637;53.352;-6.356;2023-04-03T02:30:18;6.10;;;2.08;;
35530;SDS011;21637;53.352;-6.356;2023-04-03T02:32:43;3.63;;;2.30;;
35530;SDS011;21637;53.352;-6.356;2023-04-03T02:35:10;6.10;;;2.67;;
35530;SDS011;21637;53.352;-6.356;2023-04-03T02:37:36;4.53;;;2.60;;
35530;SDS011;21637;53.352;-6.356;2023-04-03T02:40:02;4.95;;;2.42;;
35530;SDS011;21637;53.352;-6.356;2023-04-03T02:42:28;7.03;;;2.25;;
35530;SDS011;21637;53.352;-6.356;2023-04-03T02:44:54;4.43;;;2.00;;
35530;SDS011;21637;53.352;-6.356;2023-04-03T02:47:20;2.97;;;1.80;;
35530;SDS011;21637;53.352;-6.356;2023-04-03T02:49:46;7.65;;;2.50;;
35530;SDS011;21637;53.352;-6.356;2023-04-03T02:52:12;4.30;;;2.20;;
35530;SDS011;21637;53.352;-6.356;2023-04-03T02:54:38;7.88;;;2.97;;
35530;SDS011;21637;53.352;-6.356;2023-04-03T02:57:04;5.03;;;2.83;;
35530;SDS011;21637;53.352;-6.356;2023-04-03T02:59:30;4.25;;;2.33;;
35530;SDS011;21637;53.352;-6.356;2023-04-03T03:01:56;5.03;;;2.90;;
35530;SDS011;21637;53.352;-6.356;2023-04-03T03:04:22;5.28;;;2.60;;
35530;SDS011;21637;53.352;-6.356;2023-04-03T03:06:47;6.40;;;2.85;;
35530;SDS011;21637;53.352;-6.356;2023-04-03T03:09:13;7.20;;;3.25;;
35530;SDS011;21637;53.352;-6.356;2023-04-03T03:11:39;5.05;;;3.17;;
35530;SDS011;21637;53.352;-6.356;2023-04-03T03:14:05;5.00;;;3.35;;
35530;SDS011;21637;53.352;-6.356;2023-04-03T03:16:31;8.25;;;3.88;;
35530;SDS011;21637;53.352;-6.356;2023-04-03T03:18:56;6.05;;;3.80;;
35530;SDS011;21637;53.352;-6.356;2023-04-03T03:21:22;8.43;;;4.50;;
35530;SDS011;21637;53.352;-6.356;2023-04-03T03:23:48;7.03;;;3.60;;
35530;SDS011;21637;53.352;-6.356;2023-04-03T03:26:14;7.55;;;4.00;;
35530;SDS011;21637;53.352;-6.356;2023-04-03T03:28:39;6.38;;;3.85;;
35530;SDS011;21637;53.352;-6.356;2023-04-03T03:31:06;11.10;;;4.32;;
35530;SDS011;21637;53.352;-6.356;2023-04-03T03:33:32;8.73;;;4.53;;
35530;SDS011;21637;53.352;-6.356;2023-04-03T03:35:58;6.65;;;4.30;;
35530;SDS011;21637;53.352;-6.356;2023-04-03T03:38:24;10.25;;;5.00;;
35530;SDS011;21637;53.352;-6.356;2023-04-03T03:40:50;8.73;;;4.43;;
35530;SDS011;21637;53.352;-6.356;2023-04-03T03:43:17;10.52;;;4.47;;
35530;SDS011;21637;53.352;-6.356;2023-04-03T03:45:43;9.00;;;4.75;;
35530;SDS011;21637;53.352;-6.356;2023-04-03T03:48:10;7.60;;;4.50;;
35530;SDS011;21637;53.352;-6.356;2023-04-03T03:50:36;7.55;;;4.82;;
35530;SDS011;21637;53.352;-6.356;2023-04-03T03:53:01;7.35;;;4.90;;
35530;SDS011;21637;53.352;-6.356;2023-04-03T03:55:27;8.55;;;4.65;;
35530;SDS011;21637;53.352;-6.356;2023-04-03T03:57:53;10.68;;;5.00;;
35530;SDS011;21637;53.352;-6.356;2023-04-03T04:00:19;9.93;;;5.03;;
35530;SDS011;21637;53.352;-6.356;2023-04-03T04:02:45;8.85;;;5.25;;
35530;SDS011;21637;53.352;-6.356;2023-04-03T04:05:11;8.25;;;5.22;;
35530;SDS011;21637;53.352;-6.356;2023-04-03T04:07:36;7.03;;;4.78;;
35530;SDS011;21637;53.352;-6.356;2023-04-03T04:10:02;7.90;;;4.72;;
35530;SDS011;21637;53.352;-6.356;2023-04-03T04:12:28;8.30;;;5.10;;
35530;SDS011;21637;53.352;-6.356;2023-04-03T04:14:54;8.70;;;5.10;;
35530;SDS011;21637;53.352;-6.356;2023-04-03T04:17:20;9.02;;;5.18;;
35530;SDS011;21637;53.352;-6.356;2023-04-03T04:19:46;6.15;;;4.55;;
35530;SDS011;21637;53.352;-6.356;2023-04-03T04:22:12;11.02;;;5.47;;
35530;SDS011;21637;53.352;-6.356;2023-04-03T04:24:38;7.15;;;5.05;;
35530;SDS011;21637;53.352;-6.356;2023-04-03T04:27:03;10.18;;;6.28;;
35530;SDS011;21637;53.352;-6.356;2023-04-03T04:29:29;8.40;;;6.60;;
35530;SDS011;21637;53.352;-6.356;2023-04-03T04:32:00;9.75;;;6.22;;
35530;SDS011;21637;53.352;-6.356;2023-04-03T04:34:25;10.52;;;7.50;;
35530;SDS011;21637;53.352;-6.356;2023-04-03T04:36:51;8.15;;;6.65;;
35530;SDS011;21637;53.352;-6.356;2023-04-03T04:39:17;10.90;;;6.50;;
35530;SDS011;21637;53.352;-6.356;2023-04-03T04:41:42;10.02;;;7.50;;
35530;SDS011;21637;53.352;-6.356;2023-04-03T04:44:08;10.88;;;7.78;;
35530;SDS011;21637;53.352;-6.356;2023-04-03T04:46:34;11.30;;;8.38;;
35530;SDS011;21637;53.352;-6.356;2023-04-03T04:49:00;10.32;;;7.53;;
35530;SDS011;21637;53.352;-6.356;2023-04-03T04:51:26;10.80;;;7.88;;
35530;SDS011;21637;53.352;-6.356;2023-04-03T04:53:51;12.02;;;7.90;;
35530;SDS011;21637;53.352;-6.356;2023-04-03T04:56:17;9.45;;;7.72;;
35530;SDS011;21637;53.352;-6.356;2023-04-03T04:58:43;9.05;;;7.88;;
35530;SDS011;21637;53.352;-6.356;2023-04-03T05:01:09;12.55;;;7.65;;
35530;SDS011;21637;53.352;-6.356;2023-04-03T05:03:35;11.20;;;7.68;;
35530;SDS011;21637;53.352;-6.356;2023-04-03T05:06:01;10.68;;;6.45;;
35530;SDS011;21637;53.352;-6.356;2023-04-03T05:08:27;9.13;;;6.90;;
35530;SDS011;21637;53.352;-6.356;2023-04-03T05:10:53;8.38;;;6.13;;
35530;SDS011;21637;53.352;-6.356;2023-04-03T05:13:19;6.13;;;5.25;;
35530;SDS011;21637;53.352;-6.356;2023-04-03T05:15:45;6.32;;;5.00;;
35530;SDS011;21637;53.352;-6.356;2023-04-03T05:18:11;7.72;;;5.18;;
35530;SDS011;21637;53.352;-6.356;2023-04-03T05:20:38;9.13;;;5.72;;
35530;SDS011;21637;53.352;-6.356;2023-04-03T05:23:04;9.43;;;5.53;;
35530;SDS011;21637;53.352;-6.356;2023-04-03T05:25:30;10.48;;;6.20;;
35530;SDS011;21637;53.352;-6.356;2023-04-03T05:27:55;10.32;;;6.15;;
35530;SDS011;21637;53.352;-6.356;2023-04-03T05:30:21;8.80;;;6.28;;
35530;SDS011;21637;53.352;-6.356;2023-04-03T05:32:47;9.88;;;7.38;;
35530;SDS011;21637;53.352;-6.356;2023-04-03T05:35:13;10.10;;;7.35;;
35530;SDS011;21637;53.352;-6.356;2023-04-03T05:37:39;10.32;;;6.85;;
35530;SDS011;21637;53.352;-6.356;2023-04-03T05:40:06;12.77;;;7.38;;
35530;SDS011;21637;53.352;-6.356;2023-04-03T05:42:32;8.73;;;6.05;;
35530;SDS011;21637;53.352;-6.356;2023-04-03T05:44:58;8.40;;;5.63;;
35530;SDS011;21637;53.352;-6.356;2023-04-03T05:47:24;6.60;;;4.80;;
35530;SDS011;21637;53.352;-6.356;2023-04-03T05:49:49;5.85;;;5.03;;
35530;SDS011;21637;53.352;-6.356;2023-04-03T05:52:23;5.63;;;4.50;;
35530;SDS011;21637;53.352;-6.356;2023-04-03T05:54:51;12.07;;;5.78;;
35530;SDS011;21637;53.352;-6.356;2023-04-03T05:57:16;8.25;;;5.47;;
35530;SDS011;21637;53.352;-6.356;2023-04-03T05:59:43;7.20;;;4.38;;
35530;SDS011;21637;53.352;-6.356;2023-04-03T06:02:12;8.50;;;5.13;;
35530;SDS011;21637;53.352;-6.356;2023-04-03T06:04:43;8.05;;;4.90;;
35530;SDS011;21637;53.352;-6.356;2023-04-03T06:07:13;7.78;;;5.18;;
35530;SDS011;21637;53.352;-6.356;2023-04-03T06:09:41;7.37;;;5.03;;
35530;SDS011;21637;53.352;-6.356;2023-04-03T06:12:07;10.07;;;5.40;;
35530;SDS011;21637;53.352;-6.356;2023-04-03T06:14:33;10.45;;;5.75;;
35530;SDS011;21637;53.352;-6.356;2023-04-03T06:16:59;10.48;;;5.85;;
35530;SDS011;21637;53.352;-6.356;2023-04-03T06:19:25;11.18;;;6.28;;
35530;SDS011;21637;53.352;-6.356;2023-04-03T06:21:51;12.20;;;7.18;;
35530;SDS011;21637;53.352;-6.356;2023-04-03T06:24:17;11.57;;;6.82;;
35530;SDS011;21637;53.352;-6.356;2023-04-03T06:26:46;11.93;;;6.88;;
35530;SDS011;21637;53.352;-6.356;2023-04-03T06:29:12;12.93;;;7.10;;
35530;SDS011;21637;53.352;-6.356;2023-04-03T06:31:38;11.52;;;6.97;;
35530;SDS011;21637;53.352;-6.356;2023-04-03T06:34:04;10.93;;;7.10;;
35530;SDS011;21637;53.352;-6.356;2023-04-03T06:36:32;12.90;;;7.68;;
35530;SDS011;21637;53.352;-6.356;2023-04-03T06:38:58;9.70;;;6.80;;
35530;SDS011;21637;53.352;-6.356;2023-04-03T06:41:24;14.15;;;7.82;;
35530;SDS011;21637;53.352;-6.356;2023-04-03T06:43:51;13.13;;;7.22;;
35530;SDS011;21637;53.352;-6.356;2023-04-03T06:46:17;14.73;;;8.07;;
35530;SDS011;21637;53.352;-6.356;2023-04-03T06:48:45;13.10;;;7.20;;
35530;SDS011;21637;53.352;-6.356;2023-04-03T06:51:29;11.10;;;7.10;;
35530;SDS011;21637;53.352;-6.356;2023-04-03T06:53:56;10.60;;;6.38;;
35530;SDS011;21637;53.352;-6.356;2023-04-03T06:56:23;16.23;;;7.40;;
35530;SDS011;21637;53.352;-6.356;2023-04-03T06:58:51;12.43;;;6.78;;
35530;SDS011;21637;53.352;-6.356;2023-04-03T07:01:20;11.48;;;5.55;;
35530;SDS011;21637;53.352;-6.356;2023-04-03T07:03:46;11.23;;;5.35;;
35530;SDS011;21637;53.352;-6.356;2023-04-03T07:06:14;13.32;;;5.78;;
35530;SDS011;21637;53.352;-6.356;2023-04-03T07:08:41;14.55;;;5.65;;
35530;SDS011;21637;53.352;-6.356;2023-04-03T07:11:07;11.88;;;4.78;;
35530;SDS011;21637;53.352;-6.356;2023-04-03T07:13:34;13.82;;;5.35;;
35530;SDS011;21637;53.352;-6.356;2023-04-03T07:16:00;11.98;;;5.85;;
35530;SDS011;21637;53.352;-6.356;2023-04-03T07:18:26;11.35;;;5.38;;
35530;SDS011;21637;53.352;-6.356;2023-04-03T07:20:52;11.30;;;5.72;;
35530;SDS011;21637;53.352;-6.356;2023-04-03T07:23:18;15.50;;;6.03;;
35530;SDS011;21637;53.352;-6.356;2023-04-03T07:25:44;14.63;;;5.75;;
35530;SDS011;21637;53.352;-6.356;2023-04-03T07:28:12;18.60;;;5.38;;
35530;SDS011;21637;53.352;-6.356;2023-04-03T07:30:44;13.65;;;5.70;;
35530;SDS011;21637;53.352;-6.356;2023-04-03T07:33:11;13.93;;;5.55;;
35530;SDS011;21637;53.352;-6.356;2023-04-03T07:35:39;11.55;;;4.93;;
35530;SDS011;21637;53.352;-6.356;2023-04-03T07:38:05;11.25;;;5.05;;
35530;SDS011;21637;53.352;-6.356;2023-04-03T07:40:31;9.93;;;5.05;;
35530;SDS011;21637;53.352;-6.356;2023-04-03T07:42:57;11.27;;;4.68;;
35530;SDS011;21637;53.352;-6.356;2023-04-03T07:45:23;11.52;;;5.00;;
35530;SDS011;21637;53.352;-6.356;2023-04-03T07:47:49;12.02;;;5.10;;
35530;SDS011;21637;53.352;-6.356;2023-04-03T07:50:15;13.85;;;5.60;;
35530;SDS011;21637;53.352;-6.356;2023-04-03T07:52:41;10.35;;;5.03;;
35530;SDS011;21637;53.352;-6.356;2023-04-03T07:55:07;13.05;;;5.47;;
35530;SDS011;21637;53.352;-6.356;2023-04-03T07:57:33;13.23;;;5.07;;
35530;SDS011;21637;53.352;-6.356;2023-04-03T08:00:00;13.27;;;4.80;;
35530;SDS011;21637;53.352;-6.356;2023-04-03T08:02:26;16.63;;;5.60;;
35530;SDS011;21637;53.352;-6.356;2023-04-03T08:04:51;10.68;;;4.82;;
35530;SDS011;21637;53.352;-6.356;2023-04-03T08:07:18;16.25;;;5.18;;
35530;SDS011;21637;53.352;-6.356;2023-04-03T08:09:43;12.68;;;5.18;;
35530;SDS011;21637;53.352;-6.356;2023-04-03T08:12:10;10.65;;;4.70;;
35530;SDS011;21637;53.352;-6.356;2023-04-03T08:14:36;14.55;;;4.45;;
35530;SDS011;21637;53.352;-6.356;2023-04-03T08:17:02;10.93;;;3.85;;
35530;SDS011;21637;53.352;-6.356;2023-04-03T08:19:30;11.70;;;4.38;;
35530;SDS011;21637;53.352;-6.356;2023-04-03T08:21:56;14.82;;;4.47;;
35530;SDS011;21637;53.352;-6.356;2023-04-03T08:24:23;10.05;;;3.83;;
35530;SDS011;21637;53.352;-6.356;2023-04-03T08:26:49;10.40;;;4.93;;
35530;SDS011;21637;53.352;-6.356;2023-04-03T08:29:15;12.75;;;4.57;;
35530;SDS011;21637;53.352;-6.356;2023-04-03T08:31:41;10.63;;;4.35;;
35530;SDS011;21637;53.352;-6.356;2023-04-03T08:34:06;6.80;;;3.60;;
35530;SDS011;21637;53.352;-6.356;2023-04-03T08:36:33;13.43;;;4.05;;
35530;SDS011;21637;53.352;-6.356;2023-04-03T08:38:59;12.25;;;3.97;;
35530;SDS011;21637;53.352;-6.356;2023-04-03T08:41:32;14.45;;;4.72;;
35530;SDS011;21637;53.352;-6.356;2023-04-03T08:46:33;10.13;;;4.03;;
35530;SDS011;21637;53.352;-6.356;2023-04-03T08:49:04;7.32;;;4.05;;
35530;SDS011;21637;53.352;-6.356;2023-04-03T08:51:40;9.82;;;5.28;;
35530;SDS011;21637;53.352;-6.356;2023-04-03T08:54:32;10.43;;;4.55;;
35530;SDS011;21637;53.352;-6.356;2023-04-03T08:57:00;12.45;;;5.10;;
35530;SDS011;21637;53.352;-6.356;2023-04-03T08:59:29;13.10;;;4.40;;
35530;SDS011;21637;53.352;-6.356;2023-04-03T09:02:00;12.43;;;5.13;;
35530;SDS011;21637;53.352;-6.356;2023-04-03T09:04:32;14.93;;;5.30;;
35530;SDS011;21637;53.352;-6.356;2023-04-03T09:07:02;8.48;;;4.47;;
35530;SDS011;21637;53.352;-6.356;2023-04-03T09:09:38;17.33;;;5.20;;
35530;SDS011;21637;53.352;-6.356;2023-04-03T09:12:12;11.85;;;4.85;;
35530;SDS011;21637;53.352;-6.356;2023-04-03T09:25:49;11.32;;;3.75;;
35530;SDS011;21637;53.352;-6.356;2023-04-03T09:28:18;9.30;;;4.00;;
35530;SDS011;21637;53.352;-6.356;2023-04-03T09:30:44;12.90;;;4.57;;
35530;SDS011;21637;53.352;-6.356;2023-04-03T09:33:10;10.77;;;3.85;;
35530;SDS011;21637;53.352;-6.356;2023-04-03T09:35:37;11.32;;;3.40;;
35530;SDS011;21637;53.352;-6.356;2023-04-03T09:40:40;16.60;;;4.60;;
35530;SDS011;21637;53.352;-6.356;2023-04-03T09:45:42;9.63;;;4.22;;
35530;SDS011;21637;53.352;-6.356;2023-04-03T09:50:38;10.00;;;4.47;;
35530;SDS011;21637;53.352;-6.356;2023-04-03T09:53:30;14.93;;;3.95;;
35530;SDS011;21637;53.352;-6.356;2023-04-03T09:55:56;13.98;;;4.47;;
35530;SDS011;21637;53.352;-6.356;2023-04-03T09:58:27;13.10;;;4.43;;
35530;SDS011;21637;53.352;-6.356;2023-04-03T10:00:59;11.88;;;5.15;;
35530;SDS011;21637;53.352;-6.356;2023-04-03T10:05:57;12.38;;;4.88;;
35530;SDS011;21637;53.352;-6.356;2023-04-03T10:08:33;9.07;;;4.00;;
35530;SDS011;21637;53.352;-6.356;2023-04-03T10:11:13;18.25;;;5.55;;
35530;SDS011;21637;53.352;-6.356;2023-04-03T10:13:58;14.65;;;4.63;;
35530;SDS011;21637;53.352;-6.356;2023-04-03T10:16:27;11.85;;;4.75;;
35530;SDS011;21637;53.352;-6.356;2023-04-03T10:22:31;13.25;;;4.38;;
35530;SDS011;21637;53.352;-6.356;2023-04-03T10:33:05;16.23;;;5.38;;
35530;SDS011;21637;53.352;-6.356;2023-04-03T10:41:30;13.48;;;5.70;;
35530;SDS011;21637;53.352;-6.356;2023-04-03T10:46:50;33.78;;;9.10;;
35530;SDS011;21637;53.352;-6.356;2023-04-03T10:55:35;17.15;;;6.93;;
35530;SDS011;21637;53.352;-6.356;2023-04-03T11:00:52;20.88;;;11.07;;
35530;SDS011;21637;53.352;-6.356;2023-04-03T11:06:10;22.00;;;9.70;;
35530;SDS011;21637;53.352;-6.356;2023-04-03T11:08:54;14.48;;;6.65;;
35530;SDS011;21637;53.352;-6.356;2023-04-03T11:11:35;30.23;;;8.35;;
35530;SDS011;21637;53.352;-6.356;2023-04-03T11:14:15;18.23;;;7.07;;
35530;SDS011;21637;53.352;-6.356;2023-04-03T11:16:52;14.95;;;6.82;;
35530;SDS011;21637;53.352;-6.356;2023-04-03T11:22:16;10.00;;;3.47;;
35530;SDS011;21637;53.352;-6.356;2023-04-03T11:25:37;17.00;;;4.35;;
35530;SDS011;21637;53.352;-6.356;2023-04-03T11:28:11;17.08;;;4.57;;
35530;SDS011;21637;53.352;-6.356;2023-04-03T11:35:46;13.93;;;4.05;;
35530;SDS011;21637;53.352;-6.356;2023-04-03T11:38:22;21.02;;;4.28;;
35530;SDS011;21637;53.352;-6.356;2023-04-03T11:40:52;13.50;;;4.55;;
35530;SDS011;21637;53.352;-6.356;2023-04-03T11:43:29;17.15;;;4.57;;
35530;SDS011;21637;53.352;-6.356;2023-04-03T11:45:57;17.33;;;4.53;;
35530;SDS011;21637;53.352;-6.356;2023-04-03T11:51:01;14.80;;;4.28;;
35530;SDS011;21637;53.352;-6.356;2023-04-03T11:53:43;20.73;;;4.40;;
35530;SDS011;21637;53.352;-6.356;2023-04-03T11:59:26;15.55;;;4.72;;
35530;SDS011;21637;53.352;-6.356;2023-04-03T12:01:49;16.45;;;4.75;;
35530;SDS011;21637;53.352;-6.356;2023-04-03T12:04:24;11.18;;;4.15;;
35530;SDS011;21637;53.352;-6.356;2023-04-03T12:14:51;12.90;;;4.43;;
35530;SDS011;21637;53.352;-6.356;2023-04-03T12:17:26;14.95;;;5.15;;
35530;SDS011;21637;53.352;-6.356;2023-04-03T12:19:54;15.70;;;5.05;;
35530;SDS011;21637;53.352;-6.356;2023-04-03T12:22:20;14.80;;;4.15;;
35530;SDS011;21637;53.352;-6.356;2023-04-03T12:24:48;12.85;;;4.82;;
35530;SDS011;21637;53.352;-6.356;2023-04-03T12:27:34;16.13;;;4.57;;
35530;SDS011;21637;53.352;-6.356;2023-04-03T12:30:20;15.95;;;4.18;;
35530;SDS011;21637;53.352;-6.356;2023-04-03T12:33:13;15.15;;;4.00;;
35530;SDS011;21637;53.352;-6.356;2023-04-03T12:36:38;11.13;;;4.05;;
35530;SDS011;21637;53.352;-6.356;2023-04-03T12:38:55;16.35;;;3.95;;
35530;SDS011;21637;53.352;-6.356;2023-04-03T12:41:37;13.13;;;3.95;;
35530;SDS011;21637;53.352;-6.356;2023-04-03T12:44:11;12.05;;;3.90;;
35530;SDS011;21637;53.352;-6.356;2023-04-03T12:46:51;10.85;;;3.80;;
35530;SDS011;21637;53.352;-6.356;2023-04-03T12:49:32;11.82;;;4.47;;
35530;SDS011;21637;53.352;-6.356;2023-04-03T12:53:05;14.88;;;4.15;;
35530;SDS011;21637;53.352;-6.356;2023-04-03T12:55:16;16.80;;;4.75;;
35530;SDS011;21637;53.352;-6.356;2023-04-03T12:57:49;16.42;;;6.28;;
35530;SDS011;21637;53.352;-6.356;2023-04-03T13:00:22;12.10;;;3.83;;
35530;SDS011;21637;53.352;-6.356;2023-04-03T13:02:58;20.20;;;5.97;;
35530;SDS011;21637;53.352;-6.356;2023-04-03T13:05:26;15.27;;;3.88;;
35530;SDS011;21637;53.352;-6.356;2023-04-03T13:07:55;18.83;;;5.95;;
35530;SDS011;21637;53.352;-6.356;2023-04-03T13:10:28;15.38;;;4.93;;
35530;SDS011;21637;53.352;-6.356;2023-04-03T13:12:56;14.00;;;5.65;;
35530;SDS011;21637;53.352;-6.356;2023-04-03T13:15:30;11.98;;;4.05;;
35530;SDS011;21637;53.352;-6.356;2023-04-03T13:18:20;14.18;;;6.85;;
35530;SDS011;21637;53.352;-6.356;2023-04-03T13:20:48;14.88;;;4.28;;
35530;SDS011;21637;53.352;-6.356;2023-04-03T13:23:14;14.95;;;4.20;;
35530;SDS011;21637;53.352;-6.356;2023-04-03T13:25:45;12.98;;;3.88;;
35530;SDS011;21637;53.352;-6.356;2023-04-03T13:28:13;14.80;;;3.67;;
35530;SDS011;21637;53.352;-6.356;2023-04-03T13:33:29;19.17;;;4.35;;
35530;SDS011;21637;53.352;-6.356;2023-04-03T13:36:02;16.02;;;4.50;;
35530;SDS011;21637;53.352;-6.356;2023-04-03T13:38:30;19.88;;;4.97;;
35530;SDS011;21637;53.352;-6.356;2023-04-03T13:40:59;17.13;;;5.38;;
35530;SDS011;21637;53.352;-6.356;2023-04-03T13:43:29;16.33;;;5.13;;
35530;SDS011;21637;53.352;-6.356;2023-04-03T13:46:01;11.80;;;4.40;;
35530;SDS011;21637;53.352;-6.356;2023-04-03T13:48:38;15.93;;;5.63;;
35530;SDS011;21637;53.352;-6.356;2023-04-03T13:53:47;33.65;;;10.73;;
35530;SDS011;21637;53.352;-6.356;2023-04-03T13:56:20;20.00;;;5.85;;
35530;SDS011;21637;53.352;-6.356;2023-04-03T14:04:12;26.02;;;5.22;;
35530;SDS011;21637;53.352;-6.356;2023-04-03T14:06:44;14.45;;;4.53;;
35530;SDS011;21637;53.352;-6.356;2023-04-03T14:09:10;12.93;;;4.70;;
35530;SDS011;21637;53.352;-6.356;2023-04-03T14:11:36;20.30;;;5.07;;
35530;SDS011;21637;53.352;-6.356;2023-04-03T14:14:05;13.68;;;4.63;;
35530;SDS011;21637;53.352;-6.356;2023-04-03T14:16:37;15.63;;;4.47;;
35530;SDS011;21637;53.352;-6.356;2023-04-03T14:19:05;11.63;;;3.88;;
35530;SDS011;21637;53.352;-6.356;2023-04-03T14:21:31;10.43;;;4.25;;
35530;SDS011;21637;53.352;-6.356;2023-04-03T14:23:57;10.32;;;3.33;;
35530;SDS011;21637;53.352;-6.356;2023-04-03T14:26:23;14.93;;;3.65;;
35530;SDS011;21637;53.352;-6.356;2023-04-03T14:28:52;11.73;;;2.58;;
35530;SDS011;21637;53.352;-6.356;2023-04-03T14:31:19;11.68;;;3.60;;
35530;SDS011;21637;53.352;-6.356;2023-04-03T14:33:46;8.35;;;3.30;;
35530;SDS011;21637;53.352;-6.356;2023-04-03T14:36:13;8.27;;;2.60;;
35530;SDS011;21637;53.352;-6.356;2023-04-03T14:38:41;9.38;;;3.00;;
35530;SDS011;21637;53.352;-6.356;2023-04-03T14:41:10;9.43;;;3.55;;
35530;SDS011;21637;53.352;-6.356;2023-04-03T14:43:37;10.93;;;3.80;;
35530;SDS011;21637;53.352;-6.356;2023-04-03T14:46:03;12.52;;;3.75;;
35530;SDS011;21637;53.352;-6.356;2023-04-03T14:48:30;8.68;;;3.50;;
35530;SDS011;21637;53.352;-6.356;2023-04-03T14:50:56;10.80;;;3.17;;
35530;SDS011;21637;53.352;-6.356;2023-04-03T14:53:22;8.88;;;3.00;;
35530;SDS011;21637;53.352;-6.356;2023-04-03T14:55:50;10.20;;;2.80;;
35530;SDS011;21637;53.352;-6.356;2023-04-03T14:58:18;10.65;;;2.97;;
35530;SDS011;21637;53.352;-6.356;2023-04-03T15:00:45;14.30;;;3.42;;
35530;SDS011;21637;53.352;-6.356;2023-04-03T15:03:16;8.70;;;2.40;;
35530;SDS011;21637;53.352;-6.356;2023-04-03T15:05:44;8.52;;;3.13;;
35530;SDS011;21637;53.352;-6.356;2023-04-03T15:08:21;13.55;;;3.10;;
35530;SDS011;21637;53.352;-6.356;2023-04-03T15:10:49;5.18;;;2.40;;
35530;SDS011;21637;53.352;-6.356;2023-04-03T15:13:17;7.28;;;2.25;;
35530;SDS011;21637;53.352;-6.356;2023-04-03T15:15:44;10.40;;;2.75;;
35530;SDS011;21637;53.352;-6.356;2023-04-03T15:18:22;7.65;;;2.47;;
35530;SDS011;21637;53.352;-6.356;2023-04-03T15:20:51;7.45;;;2.88;;
35530;SDS011;21637;53.352;-6.356;2023-04-03T15:23:20;10.77;;;2.60;;
35530;SDS011;21637;53.352;-6.356;2023-04-03T15:25:50;7.32;;;2.80;;
35530;SDS011;21637;53.352;-6.356;2023-04-03T15:28:37;12.45;;;3.28;;
35530;SDS011;21637;53.352;-6.356;2023-04-03T15:31:06;7.60;;;2.88;;
35530;SDS011;21637;53.352;-6.356;2023-04-03T15:33:33;8.05;;;2.58;;
35530;SDS011;21637;53.352;-6.356;2023-04-03T15:36:00;10.27;;;2.78;;
35530;SDS011;21637;53.352;-6.356;2023-04-03T15:38:26;9.93;;;2.67;;
35530;SDS011;21637;53.352;-6.356;2023-04-03T15:40:53;9.20;;;2.60;;
35530;SDS011;21637;53.352;-6.356;2023-04-03T15:43:20;10.85;;;2.63;;
35530;SDS011;21637;53.352;-6.356;2023-04-03T15:45:46;5.53;;;2.20;;
35530;SDS011;21637;53.352;-6.356;2023-04-03T15:48:13;6.07;;;1.98;;
35530;SDS011;21637;53.352;-6.356;2023-04-03T15:50:40;7.13;;;2.15;;
35530;SDS011;21637;53.352;-6.356;2023-04-03T15:53:06;6.43;;;2.03;;
35530;SDS011;21637;53.352;-6.356;2023-04-03T15:55:33;9.13;;;2.63;;
35530;SDS011;21637;53.352;-6.356;2023-04-03T15:58:00;6.40;;;1.92;;
35530;SDS011;21637;53.352;-6.356;2023-04-03T16:00:27;8.63;;;2.63;;
35530;SDS011;21637;53.352;-6.356;2023-04-03T16:02:55;7.60;;;2.60;;
35530;SDS011;21637;53.352;-6.356;2023-04-03T16:05:29;6.22;;;2.28;;
35530;SDS011;21637;53.352;-6.356;2023-04-03T16:07:55;12.07;;;2.33;;
35530;SDS011;21637;53.352;-6.356;2023-04-03T16:10:22;10.18;;;2.92;;
35530;SDS011;21637;53.352;-6.356;2023-04-03T16:12:48;5.15;;;2.35;;